Time;durP1;ratioP1;P1;durP2;ratioP2;P2;SDS_P1;SDS_P2;PMS_P1;PMS_P2;Temp;Humidity;BMP_temperature;BMP_pressure;BME280_temperature;BME280_humidity;BME280_pressure;Samples;Min_cycle;Max_cycle;Signal;HPM_P1;HPM_P2
2023/03/20 00:01:23;;;;;;;28.67;17.33;;;;;;;8.67;46.58;95233.94;4959358;28;20225;-66
2023/03/20 00:03:50;;;;;;;24.13;16.60;;;;;;;8.59;46.58;95231.97;4997343;28;20205;-66
2023/03/20 00:06:24;;;;;;;24.13;14.93;;;;;;;8.44;47.12;95230.69;4968658;28;20228;-66
2023/03/20 00:08:52;;;;;;;21.80;13.77;;;;;;;8.60;46.54;95230.16;4981779;28;20581;-66
2023/03/20 00:11:30;;;;;;;24.37;13.43;;;;;;;8.55;46.61;95230.59;4969085;28;20278;-66
2023/03/20 00:13:58;;;;;;;16.73;11.50;;;;;;;8.42;46.71;95223.91;4967719;28;20306;-66
2023/03/20 00:16:29;;;;;;;17.77;12.57;;;;;;;8.47;46.97;95233.03;4968287;28;20225;-66
2023/03/20 00:18:55;;;;;;;20.03;12.37;;;;;;;8.41;47.01;95224.88;4963160;28;20235;-66
2023/03/20 00:21:21;;;;;;;21.87;13.30;;;;;;;8.36;47.39;95227.88;4973720;28;20203;-66
2023/03/20 00:23:46;;;;;;;21.97;11.30;;;;;;;8.34;47.12;95216.69;4997046;28;20327;-66
2023/03/20 00:26:18;;;;;;;19.07;11.40;;;;;;;8.39;47.08;95225.00;4983394;28;20224;-66
2023/03/20 00:28:43;;;;;;;19.70;11.27;;;;;;;8.30;47.27;95216.13;4969800;28;20232;-66
2023/03/20 00:31:24;;;;;;;15.00;10.73;;;;;;;8.22;47.57;95225.63;4965054;28;20225;-67
2023/03/20 00:33:51;;;;;;;19.67;12.27;;;;;;;8.30;47.44;95225.78;4995568;28;20208;-69
2023/03/20 00:36:16;;;;;;;20.80;13.17;;;;;;;8.30;47.44;95221.38;4971015;28;20200;-69
2023/03/20 00:38:42;;;;;;;18.27;11.30;;;;;;;8.44;46.98;95216.75;4997005;28;20314;-67
2023/03/20 00:41:26;;;;;;;24.90;12.27;;;;;;;8.49;47.27;95214.56;4970928;28;20228;-68
2023/03/20 00:43:55;;;;;;;17.90;10.53;;;;;;;8.27;47.08;95215.56;4982706;28;20220;-68
2023/03/20 00:46:21;;;;;;;23.73;13.13;;;;;;;8.23;47.71;95212.38;4966000;28;20255;-68
2023/03/20 00:48:47;;;;;;;26.10;14.07;;;;;;;8.21;47.52;95213.50;4970047;28;20204;-67
2023/03/20 00:51:13;;;;;;;19.70;13.20;;;;;;;8.20;47.48;95215.25;4964443;28;20242;-68
2023/03/20 00:53:39;;;;;;;23.43;15.13;;;;;;;8.01;48.15;95213.41;4968848;28;20224;-67
2023/03/20 00:56:05;;;;;;;26.13;16.03;;;;;;;7.97;48.19;95219.03;4969891;28;20231;-67
2023/03/20 00:58:31;;;;;;;24.73;14.03;;;;;;;7.95;48.26;95212.13;4950117;28;20307;-65
2023/03/20 01:00:57;;;;;;;22.03;14.93;;;;;;;7.92;48.56;95209.78;4968219;28;20236;-65
2023/03/20 01:03:25;;;;;;;20.13;14.77;;;;;;;7.99;48.22;95201.41;4967314;28;20457;-64
2023/03/20 01:05:50;;;;;;;30.30;18.50;;;;;;;8.04;48.00;95202.66;4964240;28;20307;-64
2023/03/20 01:08:23;;;;;;;31.47;19.87;;;;;;;7.80;48.89;95200.34;4968952;28;20319;-65
2023/03/20 01:10:52;;;;;;;32.80;19.07;;;;;;;7.79;48.97;95193.47;4963357;28;20307;-64
2023/03/20 01:13:23;;;;;;;26.37;18.20;;;;;;;7.49;49.81;95202.13;4970266;28;20243;-64
2023/03/20 01:15:51;;;;;;;27.37;17.17;;;;;;;7.33;50.15;95189.47;4966349;28;20192;-64
2023/03/20 01:18:21;;;;;;;26.13;17.70;;;;;;;7.31;50.54;95196.63;4969376;28;20197;-64
2023/03/20 01:20:47;;;;;;;27.53;17.83;;;;;;;7.40;50.29;95185.38;4963528;28;21104;-64
2023/03/20 01:23:13;;;;;;;24.20;16.03;;;;;;;7.53;49.52;95179.94;4980119;28;20282;-64
2023/03/20 01:25:39;;;;;;;28.67;17.50;;;;;;;7.45;49.84;95182.38;4968297;28;20231;-64
2023/03/20 01:28:20;;;;;;;26.83;17.00;;;;;;;7.44;49.79;95191.19;4961377;28;20235;-64
2023/03/20 01:30:46;;;;;;;27.60;16.53;;;;;;;7.28;50.65;95189.03;4968201;28;20207;-64
2023/03/20 01:33:20;;;;;;;29.07;16.40;;;;;;;7.39;50.43;95182.91;4962423;28;20274;-64
2023/03/20 01:35:47;;;;;;;23.87;17.50;;;;;;;7.26;50.59;95193.56;4964956;28;20247;-64
2023/03/20 01:38:22;;;;;;;25.93;16.77;;;;;;;7.23;50.53;95188.56;4971629;28;20234;-64
2023/03/20 01:40:53;;;;;;;25.70;16.27;;;;;;;7.25;50.72;95192.72;4971008;28;20448;-63
2023/03/20 01:43:21;;;;;;;22.60;14.73;;;;;;;7.26;50.82;95193.56;4971634;28;20228;-63
2023/03/20 01:45:56;;;;;;;27.30;16.50;;;;;;;7.39;50.16;95198.59;4969600;28;20234;-63
2023/03/20 01:48:24;;;;;;;19.13;14.10;;;;;;;7.37;49.89;95198.72;4970091;28;20258;-64
2023/03/20 01:50:49;;;;;;;19.60;13.10;;;;;;;7.32;50.15;95200.06;5002078;28;20232;-63
2023/03/20 01:53:26;;;;;;;19.77;13.07;;;;;;;7.37;49.40;95201.34;4972243;28;20240;-63
2023/03/20 01:55:55;;;;;;;17.00;11.37;;;;;;;7.38;49.08;95203.00;4968906;28;20251;-63
2023/03/20 01:58:35;;;;;;;15.53;11.27;;;;;;;7.32;49.79;95202.69;4967476;28;20322;-65
2023/03/20 02:01:01;;;;;;;14.87;11.40;;;;;;;7.34;49.87;95204.22;4972096;28;20219;-63
2023/03/20 02:03:26;;;;;;;13.67;11.50;;;;;;;7.30;49.61;95194.97;4973201;28;20184;-64
2023/03/20 02:05:54;;;;;;;15.73;11.50;;;;;;;7.16;50.21;95198.69;4972455;28;20762;-64
2023/03/20 02:08:30;;;;;;;17.33;12.53;;;;;;;7.23;49.57;95199.88;4996021;28;20232;-63
2023/03/20 02:10:59;;;;;;;18.17;11.90;;;;;;;7.29;49.72;95198.53;5001554;28;20270;-63
2023/03/20 02:13:30;;;;;;;16.93;11.93;;;;;;;7.12;49.94;95189.47;4968032;28;20228;-63
2023/03/20 02:16:15;;;;;;;18.00;12.87;;;;;;;7.27;50.12;95195.19;5001786;28;20229;-63
2023/03/20 02:18:43;;;;;;;21.97;12.83;;;;;;;7.06;50.54;95196.03;4968166;28;20197;-63
2023/03/20 02:21:15;;;;;;;22.03;12.77;;;;;;;7.02;50.89;95189.38;4959747;28;20201;-63
2023/03/20 02:24:08;;;;;;;24.37;12.57;;;;;;;6.93;50.93;95192.75;4998778;28;20224;-64
2023/03/20 02:26:52;;;;;;;19.90;13.33;;;;;;;6.92;50.82;95195.50;4966887;28;20236;-63
2023/03/20 02:30:05;;;;;;;19.40;12.83;;;;;;;6.90;50.92;95192.19;4997941;28;20223;-64
2023/03/20 02:33:10;;;;;;;20.67;13.27;;;;;;;6.75;51.40;95205.53;4972071;28;20232;-66
2023/03/20 02:36:16;;;;;;;21.33;13.80;;;;;;;6.93;51.19;95199.78;4968811;28;20298;-67
2023/03/20 02:39:06;;;;;;;19.00;14.07;;;;;;;6.85;51.04;95203.00;4972926;28;20289;-66
2023/03/20 02:41:42;;;;;;;18.80;13.47;;;;;;;6.76;51.32;95201.13;4970094;28;20244;-67
2023/03/20 02:44:19;;;;;;;19.43;13.37;;;;;;;6.80;51.48;95197.31;4967887;28;20223;-67
2023/03/20 02:46:53;;;;;;;15.03;12.63;;;;;;;6.85;51.05;95187.34;4966203;28;20231;-68
2023/03/20 02:49:41;;;;;;;18.70;13.27;;;;;;;6.89;50.94;95185.28;4998162;28;20315;-68
2023/03/20 02:52:20;;;;;;;17.73;13.13;;;;;;;6.79;51.20;95188.66;5003186;28;20259;-67
2023/03/20 02:55:20;;;;;;;17.33;12.20;;;;;;;6.72;51.61;95190.09;4968526;28;20189;-68
2023/03/20 02:57:51;;;;;;;16.23;11.63;;;;;;;6.59;52.16;95187.63;4960667;28;20228;-67
2023/03/20 03:00:25;;;;;;;16.83;12.53;;;;;;;6.71;51.62;95188.44;4968047;28;20192;-66
2023/03/20 03:03:17;;;;;;;17.30;12.30;;;;;;;6.83;51.28;95176.16;4962791;28;20315;-66
2023/03/20 03:05:49;;;;;;;16.37;12.33;;;;;;;6.81;51.64;95178.06;4965213;28;20232;-67
2023/03/20 03:08:18;;;;;;;14.50;11.67;;;;;;;6.71;51.75;95182.38;4965632;28;20236;-66
2023/03/20 03:10:49;;;;;;;15.70;12.00;;;;;;;6.58;51.86;95186.00;4971395;28;20227;-63
2023/03/20 03:13:19;;;;;;;16.40;12.20;;;;;;;6.36;52.24;95178.19;4970483;28;20255;-63
2023/03/20 03:15:49;;;;;;;14.47;11.97;;;;;;;6.10;53.15;95180.28;4978676;28;20279;-64
2023/03/20 03:18:22;;;;;;;16.33;11.87;;;;;;;6.19;52.72;95180.38;4971663;28;20264;-67
2023/03/20 03:20:55;;;;;;;13.67;11.07;;;;;;;6.17;52.71;95177.06;4981139;28;20227;-67
2023/03/20 03:23:33;;;;;;;13.67;11.20;;;;;;;6.27;52.83;95173.72;4959735;28;20231;-66
2023/03/20 03:26:03;;;;;;;14.03;10.47;;;;;;;6.33;52.46;95178.44;4959402;28;20247;-68
2023/03/20 03:28:47;;;;;;;12.47;10.67;;;;;;;5.95;53.62;95179.69;4967610;28;20231;-67
2023/03/20 03:31:16;;;;;;;12.47;11.00;;;;;;;6.28;52.87;95183.19;4965916;28;20326;-67
2023/03/20 03:33:46;;;;;;;13.33;10.67;;;;;;;6.20;53.09;95181.19;4971621;28;20702;-67
2023/03/20 03:36:42;;;;;;;15.43;10.97;;;;;;;6.18;52.96;95180.50;4970114;28;20188;-67
2023/03/20 03:39:42;;;;;;;12.80;10.20;;;;;;;6.00;53.59;95185.38;4963356;28;20224;-67
2023/03/20 03:42:40;;;;;;;14.97;10.80;;;;;;;5.85;54.08;95183.91;4969040;28;20719;-67
2023/03/20 03:45:12;;;;;;;14.87;11.10;;;;;;;5.86;54.36;95196.03;4980273;28;20420;-67
2023/03/20 03:47:52;;;;;;;15.63;10.70;;;;;;;5.79;54.33;95185.22;4948741;28;20221;-66
2023/03/20 03:50:25;;;;;;;13.60;10.30;;;;;;;5.87;54.60;95182.84;4949755;28;20255;-66
2023/03/20 03:52:57;;;;;;;13.93;10.50;;;;;;;6.10;53.63;95178.50;4951664;28;20240;-67
2023/03/20 03:55:31;;;;;;;16.70;11.50;;;;;;;6.23;53.06;95182.72;4965213;28;20235;-66
2023/03/20 03:58:03;;;;;;;17.33;12.10;;;;;;;6.28;52.82;95180.59;4950120;28;20219;-65
2023/03/20 04:00:32;;;;;;;20.03;11.77;;;;;;;6.09;53.14;95174.19;4952052;28;20192;-65
2023/03/20 04:02:58;;;;;;;16.60;11.27;;;;;;;6.19;52.83;95176.94;4949689;28;20259;-65
2023/03/20 04:05:30;;;;;;;18.07;11.93;;;;;;;6.29;52.85;95177.03;4956675;28;20220;-65
2023/03/20 04:07:57;;;;;;;16.47;12.13;;;;;;;6.32;52.69;95176.78;4951114;28;20271;-65
2023/03/20 04:10:23;;;;;;;15.57;11.43;;;;;;;6.30;52.46;95166.47;4951245;28;20223;-65
2023/03/20 04:12:49;;;;;;;16.07;12.07;;;;;;;6.24;52.85;95173.97;4949774;28;20216;-66
2023/03/20 04:15:15;;;;;;;15.73;11.57;;;;;;;6.23;52.90;95167.06;4947680;28;20200;-65
2023/03/20 04:17:41;;;;;;;20.63;12.57;;;;;;;6.11;53.25;95161.88;4946838;28;20231;-65
2023/03/20 04:20:08;;;;;;;18.13;11.77;;;;;;;6.23;53.14;95162.69;4951848;28;20299;-67
2023/03/20 04:22:34;;;;;;;19.53;12.83;;;;;;;6.25;52.83;95160.78;4978567;28;20229;-67
2023/03/20 04:25:04;;;;;;;16.63;12.10;;;;;;;6.29;52.25;95159.59;4970507;28;20235;-67
2023/03/20 04:27:30;;;;;;;17.93;12.13;;;;;;;6.26;52.22;95161.63;4983724;28;20208;-68
2023/03/20 04:29:56;;;;;;;17.90;11.53;;;;;;;6.24;52.30;95164.34;4992684;28;20243;-66
2023/03/20 04:32:21;;;;;;;16.07;11.53;;;;;;;6.19;52.34;95156.88;4967183;28;20232;-68
2023/03/20 04:34:46;;;;;;;16.23;10.97;;;;;;;6.17;52.20;95148.34;4967512;28;20223;-67
2023/03/20 04:37:14;;;;;;;18.03;10.83;;;;;;;6.29;51.77;95159.59;4967886;28;20233;-63
2023/03/20 04:39:41;;;;;;;11.93;10.10;;;;;;;6.33;51.93;95162.78;4979152;28;20191;-63
2023/03/20 04:42:07;;;;;;;13.00;9.97;;;;;;;6.36;51.47;95163.38;4967997;28;20215;-67
2023/03/20 04:44:32;;;;;;;17.43;10.80;;;;;;;6.47;51.59;95165.13;4969587;28;20224;-62
2023/03/20 04:46:58;;;;;;;16.37;10.00;;;;;;;6.44;52.03;95165.34;4969333;28;20223;-63
2023/03/20 04:49:23;;;;;;;18.30;11.00;;;;;;;6.25;52.15;95170.38;4965263;28;20247;-65
2023/03/20 04:51:49;;;;;;;17.17;12.00;;;;;;;6.11;52.71;95174.91;5001043;28;20219;-68
2023/03/20 04:54:15;;;;;;;17.40;11.97;;;;;;;5.95;53.45;95187.50;4963354;28;20201;-68
2023/03/20 04:56:40;;;;;;;21.53;11.80;;;;;;;6.09;52.75;95184.66;4965169;28;20249;-68
2023/03/20 04:59:06;;;;;;;18.07;13.20;;;;;;;5.86;53.58;95196.03;4970497;28;20220;-68
2023/03/20 05:01:31;;;;;;;16.50;13.00;;;;;;;5.70;53.85;95199.81;4966101;28;20302;-68
2023/03/20 05:03:59;;;;;;;14.57;12.33;;;;;;;5.62;54.29;95199.56;4969017;28;20223;-67
2023/03/20 05:06:30;;;;;;;17.50;13.63;;;;;;;5.28;54.98;95194.28;4964494;28;20223;-67
2023/03/20 05:08:57;;;;;;;17.47;13.50;;;;;;;5.85;53.44;95196.97;4961376;28;20240;-68
2023/03/20 05:11:24;;;;;;;16.87;13.53;;;;;;;5.98;53.27;95208.16;4998795;28;20218;-67
2023/03/20 05:13:49;;;;;;;23.37;14.47;;;;;;;5.85;53.64;95204.78;4984669;28;20468;-68
2023/03/20 05:16:15;;;;;;;24.90;16.07;;;;;;;6.13;53.11;95203.53;4969328;28;20220;-67
2023/03/20 05:18:40;;;;;;;20.93;13.43;;;;;;;6.17;52.92;95197.97;4968942;28;20196;-68
2023/03/20 05:21:07;;;;;;;19.57;13.30;;;;;;;6.12;53.47;95196.63;4964184;28;20273;-68
2023/03/20 05:23:32;;;;;;;21.13;13.33;;;;;;;6.11;52.89;95201.03;4971895;28;20251;-66
2023/03/20 05:25:58;;;;;;;22.20;14.13;;;;;;;6.28;52.68;95206.69;4966380;28;20248;-67
2023/03/20 05:28:24;;;;;;;20.50;13.37;;;;;;;6.48;52.37;95207.75;4969151;28;20245;-65
2023/03/20 05:30:49;;;;;;;18.87;14.00;;;;;;;6.46;52.50;95201.81;4951706;28;20192;-67
2023/03/20 05:33:15;;;;;;;27.60;14.83;;;;;;;6.21;53.30;95213.38;4970395;28;20302;-67
2023/03/20 05:35:41;;;;;;;20.53;13.50;;;;;;;6.35;53.49;95213.13;4967006;28;20226;-68
2023/03/20 05:38:06;;;;;;;20.60;15.30;;;;;;;6.28;53.16;95211.91;4994424;28;20232;-65
2023/03/20 05:40:32;;;;;;;23.67;15.07;;;;;;;6.38;53.11;95205.03;4968014;28;20224;-64
2023/03/20 05:42:57;;;;;;;21.50;15.30;;;;;;;6.71;52.14;95218.97;4968868;28;20228;-68
2023/03/20 05:45:23;;;;;;;26.73;15.43;;;;;;;6.85;51.81;95210.84;4963227;28;20199;-66
2023/03/20 05:47:48;;;;;;;22.87;14.90;;;;;;;6.88;51.89;95204.56;4977973;28;20234;-65
2023/03/20 05:50:14;;;;;;;21.10;14.50;;;;;;;6.91;51.38;95205.13;4975705;28;20240;-67
2023/03/20 05:52:39;;;;;;;18.93;13.20;;;;;;;7.05;51.10;95210.03;4967733;28;20245;-68
2023/03/20 05:55:05;;;;;;;21.03;12.97;;;;;;;7.06;50.96;95216.94;4966703;28;20252;-68
2023/03/20 05:57:30;;;;;;;20.73;13.23;;;;;;;7.15;51.00;95223.22;4959975;28;20244;-70
2023/03/20 05:59:56;;;;;;;19.07;12.10;;;;;;;7.19;51.01;95214.16;4997253;28;20228;-63
2023/03/20 06:02:21;;;;;;;17.30;13.00;;;;;;;7.20;51.44;95220.22;4966789;28;20216;-68
2023/03/20 06:04:47;;;;;;;20.87;12.20;;;;;;;7.26;51.16;95222.31;4963010;28;20232;-67
2023/03/20 06:07:12;;;;;;;21.20;13.33;;;;;;;7.33;50.41;95207.78;4964180;28;20235;-69
2023/03/20 06:09:38;;;;;;;23.87;12.93;;;;;;;7.42;50.21;95209.63;4969180;28;20204;-68
2023/03/20 06:12:03;;;;;;;23.40;12.40;;;;;;;7.41;50.52;95215.84;4962760;28;20224;-67
2023/03/20 06:14:29;;;;;;;22.87;12.23;;;;;;;7.55;50.09;95211.22;4966997;28;21320;-67
2023/03/20 06:16:55;;;;;;;17.57;11.87;;;;;;;7.25;50.59;95218.88;4966945;28;20236;-66
2023/03/20 06:19:21;;;;;;;17.53;12.03;;;;;;;7.11;51.03;95213.13;4965930;28;20310;-62
2023/03/20 06:21:48;;;;;;;22.03;12.63;;;;;;;6.96;51.59;95215.22;4966070;28;20283;-69
2023/03/20 06:24:14;;;;;;;20.17;12.83;;;;;;;6.89;51.70;95214.88;4982504;28;20195;-70
2023/03/20 06:26:40;;;;;;;18.33;12.77;;;;;;;7.19;51.10;95218.53;4996976;28;20238;-69
2023/03/20 06:29:05;;;;;;;22.97;13.17;;;;;;;7.39;51.00;95215.13;4980393;28;20228;-69
2023/03/20 06:31:31;;;;;;;18.83;12.87;;;;;;;7.64;50.14;95221.75;4969212;28;20217;-72
2023/03/20 06:33:56;;;;;;;23.67;13.93;;;;;;;7.78;49.74;95223.22;4968371;28;20298;-73
2023/03/20 06:36:22;;;;;;;29.23;14.07;;;;;;;7.85;49.17;95210.44;4970972;28;20204;-74
2023/03/20 06:38:47;;;;;;;20.47;13.57;;;;;;;8.09;48.61;95221.41;4970413;28;20408;-73
2023/03/20 06:41:13;;;;;;;19.40;14.00;;;;;;;8.00;48.87;95224.03;4965689;28;20243;-73
2023/03/20 06:43:38;;;;;;;28.17;14.20;;;;;;;8.20;48.49;95223.13;4967127;28;20223;-73
2023/03/20 06:46:05;;;;;;;19.57;13.17;;;;;;;8.32;48.06;95214.22;4973302;28;20298;-72
2023/03/20 06:48:31;;;;;;;22.53;14.27;;;;;;;8.42;47.69;95211.66;4997298;28;20197;-72
2023/03/20 06:50:57;;;;;;;24.43;13.87;;;;;;;8.53;47.49;95222.03;4971826;28;20212;-72
2023/03/20 06:53:22;;;;;;;18.43;13.80;;;;;;;8.60;47.55;95217.88;4996941;28;20318;-71
2023/03/20 06:55:49;;;;;;;21.73;14.33;;;;;;;8.65;47.94;95217.50;4969541;28;20319;-71
2023/03/20 06:58:15;;;;;;;24.47;14.30;;;;;;;8.74;47.28;95211.47;4968596;28;20224;-70
2023/03/20 07:00:41;;;;;;;19.47;15.20;;;;;;;8.80;46.92;95213.53;4951586;28;20197;-70
2023/03/20 07:03:06;;;;;;;23.57;14.90;;;;;;;8.92;46.81;95205.53;4974881;28;20343;-69
2023/03/20 07:05:32;;;;;;;23.30;14.77;;;;;;;8.94;46.39;95199.19;4953527;28;20284;-69
2023/03/20 07:07:58;;;;;;;28.70;16.20;;;;;;;8.91;46.62;95201.25;4960406;28;20711;-64
2023/03/20 07:10:24;;;;;;;21.63;14.93;;;;;;;9.00;46.60;95208.28;4970028;28;20222;-64
2023/03/20 07:12:49;;;;;;;20.97;14.73;;;;;;;9.07;46.55;95188.41;4967117;28;20243;-69
2023/03/20 07:15:19;;;;;;;22.03;13.87;;;;;;;9.25;46.20;95205.13;4973525;28;20200;-68
2023/03/20 07:17:44;;;;;;;23.87;15.07;;;;;;;9.38;46.25;95206.63;4964476;28;20228;-64
2023/03/20 07:20:10;;;;;;;25.20;15.63;;;;;;;9.41;45.91;95204.56;4966060;28;20229;-71
2023/03/20 07:22:36;;;;;;;20.90;14.67;;;;;;;9.51;45.79;95204.53;4968218;28;20294;-67
2023/03/20 07:25:01;;;;;;;22.70;15.20;;;;;;;9.49;45.95;95198.63;4965925;28;20229;-63
2023/03/20 07:27:27;;;;;;;24.70;15.23;;;;;;;9.54;45.75;95196.38;4977271;28;20208;-68
2023/03/20 07:29:52;;;;;;;28.53;17.60;;;;;;;9.62;45.76;95193.03;4960168;28;20227;-68
2023/03/20 07:32:18;;;;;;;17.60;13.57;;;;;;;9.69;45.54;95205.47;4967766;28;20236;-69
2023/03/20 07:34:43;;;;;;;17.73;13.07;;;;;;;9.77;45.33;95196.88;4969724;28;20226;-70
2023/03/20 07:37:10;;;;;;;19.87;14.30;;;;;;;9.79;45.16;95199.38;4996343;28;20401;-68
2023/03/20 07:39:35;;;;;;;21.67;13.47;;;;;;;9.87;45.18;95196.88;4966666;28;20204;-69
2023/03/20 07:42:01;;;;;;;21.93;14.60;;;;;;;9.92;45.33;95198.09;4970264;28;20196;-68
2023/03/20 07:44:26;;;;;;;19.37;14.40;;;;;;;9.98;45.00;95194.06;4972740;28;20252;-68
2023/03/20 07:46:52;;;;;;;20.80;15.17;;;;;;;10.05;44.37;95204.81;4969521;28;20233;-69
2023/03/20 07:49:17;;;;;;;18.23;14.27;;;;;;;9.99;44.85;95195.72;4958671;28;20263;-69
2023/03/20 07:51:44;;;;;;;18.52;13.80;;;;;;;10.08;45.14;95202.75;4947417;28;20335;-69
2023/03/20 07:54:10;;;;;;;14.93;11.57;;;;;;;10.20;44.83;95197.28;4948583;28;20189;-68
2023/03/20 07:56:35;;;;;;;19.52;12.20;;;;;;;10.19;45.09;95190.41;4944882;28;20221;-67
2023/03/20 07:59:01;;;;;;;15.90;12.32;;;;;;;10.26;44.99;95202.78;4960574;28;20225;-70
2023/03/20 08:01:27;;;;;;;15.60;12.88;;;;;;;10.35;44.66;95203.78;4969528;28;20227;-67
2023/03/20 08:03:52;;;;;;;20.23;14.47;;;;;;;10.82;43.18;95201.00;4966526;28;20226;-67
2023/03/20 08:06:18;;;;;;;20.03;14.43;;;;;;;10.33;44.39;95196.03;4961689;28;20268;-68
2023/03/20 08:08:43;;;;;;;21.02;15.52;;;;;;;10.35;44.50;95190.63;4968485;28;20220;-65
2023/03/20 08:11:10;;;;;;;17.67;13.98;;;;;;;10.42;44.43;95190.84;4964065;28;20315;-65
2023/03/20 08:13:36;;;;;;;23.15;14.95;;;;;;;10.49;44.31;95192.75;4965870;28;20243;-67
2023/03/20 08:16:02;;;;;;;22.92;16.42;;;;;;;10.76;43.89;95194.53;4964979;28;20220;-68
2023/03/20 08:18:28;;;;;;;20.65;15.20;;;;;;;10.60;44.34;95189.91;4997925;28;20231;-69
2023/03/20 08:20:53;;;;;;;22.67;15.55;;;;;;;10.69;44.47;95192.63;4969889;28;20216;-67
2023/03/20 08:23:18;;;;;;;19.10;15.40;;;;;;;10.79;43.95;95193.41;4969320;28;20220;-64
2023/03/20 08:25:51;;;;;;;22.00;16.03;;;;;;;10.88;43.51;95199.56;4964806;28;20228;-63
2023/03/20 08:28:17;;;;;;;20.90;15.93;;;;;;;11.07;43.18;95193.38;4963863;28;20225;-63
2023/03/20 08:30:43;;;;;;;21.10;15.83;;;;;;;10.79;43.93;95196.84;4963901;28;20190;-63
2023/03/20 08:33:08;;;;;;;18.85;13.68;;;;;;;10.81;43.69;95197.53;4960952;28;20293;-64
2023/03/20 08:35:34;;;;;;;18.10;14.80;;;;;;;10.93;43.86;95198.16;4963678;28;20228;-65
2023/03/20 08:38:00;;;;;;;18.03;14.40;;;;;;;11.01;43.19;95195.63;4969437;28;20253;-63
2023/03/20 08:40:25;;;;;;;16.75;13.50;;;;;;;10.87;43.62;95197.94;4970249;28;20235;-62
2023/03/20 08:42:51;;;;;;;18.67;13.93;;;;;;;11.00;43.73;95201.84;4961753;28;20271;-64
2023/03/20 08:45:16;;;;;;;19.50;14.52;;;;;;;11.02;43.53;95192.00;4995610;28;20199;-65
2023/03/20 08:47:42;;;;;;;21.40;14.75;;;;;;;11.15;43.29;95183.72;4971565;28;20224;-65
2023/03/20 08:50:08;;;;;;;22.40;15.43;;;;;;;11.19;43.30;95185.06;4968048;28;20236;-67
2023/03/20 08:52:33;;;;;;;21.67;16.13;;;;;;;11.29;43.49;95185.00;4962954;28;20296;-70
2023/03/20 08:54:59;;;;;;;18.98;15.05;;;;;;;11.37;43.03;95187.69;4968807;28;20307;-68
2023/03/20 08:57:25;;;;;;;19.20;15.00;;;;;;;11.41;42.56;95186.44;4967244;28;20194;-69
2023/03/20 08:59:50;;;;;;;31.50;15.55;;;;;;;11.49;42.84;95188.28;4961101;28;20231;-64
2023/03/20 09:02:16;;;;;;;18.33;14.15;;;;;;;11.59;42.12;95182.91;4964828;28;20213;-64
2023/03/20 09:04:41;;;;;;;20.55;14.40;;;;;;;11.51;42.49;95185.50;4971744;28;20283;-72
2023/03/20 09:07:07;;;;;;;18.25;13.45;;;;;;;11.64;42.03;95184.09;4966691;28;20310;-66
2023/03/20 09:09:32;;;;;;;17.38;14.05;;;;;;;11.84;41.34;95182.13;4968160;28;20216;-67
2023/03/20 09:11:58;;;;;;;17.50;13.68;;;;;;;11.75;41.75;95182.22;4959250;28;20315;-66
2023/03/20 09:14:25;;;;;;;22.08;13.35;;;;;;;11.90;41.57;95173.59;4965123;28;20230;-65
2023/03/20 09:16:51;;;;;;;13.25;11.85;;;;;;;12.04;41.46;95169.56;4963700;28;20234;-66
2023/03/20 09:19:18;;;;;;;19.95;11.85;;;;;;;12.10;40.64;95170.75;4961978;28;20228;-66
2023/03/20 09:21:43;;;;;;;17.52;12.73;;;;;;;12.06;41.08;95172.06;4960924;28;20192;-66
2023/03/20 09:24:10;;;;;;;16.58;13.40;;;;;;;12.17;40.76;95161.22;4968511;28;20214;-66
2023/03/20 09:26:36;;;;;;;17.35;13.07;;;;;;;12.29;40.76;95153.84;4968486;28;20227;-68
2023/03/20 09:29:02;;;;;;;19.33;14.10;;;;;;;12.67;39.89;95160.44;4968798;28;20270;-67
2023/03/20 09:31:27;;;;;;;18.42;14.88;;;;;;;12.68;39.83;95159.44;4971721;28;21040;-69
2023/03/20 09:33:52;;;;;;;19.10;13.23;;;;;;;13.18;38.59;95166.44;4967399;28;20216;-67
2023/03/20 09:36:18;;;;;;;13.00;11.32;;;;;;;13.23;37.91;95155.38;4964139;28;20196;-66
2023/03/20 09:38:43;;;;;;;15.85;12.50;;;;;;;12.76;39.19;95148.06;4962675;28;20231;-67
2023/03/20 09:41:36;;;;;;;12.52;11.23;;;;;;;12.86;39.30;95148.75;4966962;28;20242;-66
2023/03/20 09:44:29;;;;;;;17.75;11.07;;;;;;;13.12;38.90;95145.13;4963590;28;20229;-68
2023/03/20 09:47:21;;;;;;;17.00;10.98;;;;;;;13.23;38.81;95140.38;4995902;28;20226;-67
2023/03/20 09:50:07;;;;;;;14.73;10.43;;;;;;;13.29;38.45;95132.81;4966713;28;20242;-67
2023/03/20 09:53:06;;;;;;;14.07;10.80;;;;;;;13.47;37.70;95120.22;4965307;28;20237;-67
2023/03/20 09:55:38;;;;;;;11.63;10.38;;;;;;;13.70;37.99;95115.09;4967247;28;20302;-67
2023/03/20 09:58:32;;;;;;;14.68;11.02;;;;;;;13.85;37.62;95096.72;5000667;28;20225;-68
2023/03/20 10:00:59;;;;;;;13.18;11.20;;;;;;;14.00;37.33;95097.66;4967939;28;20248;-68
2023/03/20 10:03:49;;;;;;;12.00;10.55;;;;;;;14.25;36.28;95102.88;4981891;28;20188;-68
2023/03/20 10:06:16;;;;;;;17.25;10.07;;;;;;;14.19;36.87;95092.94;4947208;29;20221;-67
2023/03/20 10:08:44;;;;;;;14.63;10.52;;;;;;;14.22;36.61;95082.88;4962921;28;20228;-67
2023/03/20 10:11:09;;;;;;;15.00;11.00;;;;;;;13.98;36.73;95073.22;4963576;28;20223;-67
2023/03/20 10:13:54;;;;;;;17.10;10.63;;;;;;;13.98;37.28;95075.03;4996978;28;20385;-69
2023/03/20 10:16:26;;;;;;;16.77;11.25;;;;;;;14.27;36.74;95082.34;4964973;28;20313;-70
2023/03/20 10:19:26;;;;;;;12.15;10.40;;;;;;;14.28;36.75;95081.34;4962338;28;20199;-70
2023/03/20 10:22:10;;;;;;;12.85;11.02;;;;;;;14.37;36.55;95067.06;4956461;28;20200;-70
2023/03/20 10:24:45;;;;;;;17.55;11.07;;;;;;;14.49;35.54;95063.06;4963295;28;20193;-69
2023/03/20 10:27:47;;;;;;;13.38;10.82;;;;;;;14.45;35.95;95068.84;4948482;28;20262;-70
2023/03/20 10:30:30;;;;;;;14.48;11.35;;;;;;;14.44;35.55;95062.75;4885926;29;20218;-69
2023/03/20 10:33:04;;;;;;;17.13;11.23;;;;;;;14.68;35.54;95060.97;4892922;29;20227;-69
2023/03/20 10:35:54;;;;;;;13.20;10.80;;;;;;;14.81;35.08;95055.09;4887424;29;20237;-69
2023/03/20 10:38:28;;;;;;;13.68;10.25;;;;;;;15.56;34.13;95051.63;4879941;29;20226;-69
2023/03/20 10:40:56;;;;;;;17.52;11.50;;;;;;;15.29;34.43;95050.38;4891244;29;20238;-69
2023/03/20 10:43:35;;;;;;;14.40;11.65;;;;;;;15.30;35.11;95044.09;4897804;29;20226;-69
2023/03/20 10:46:03;;;;;;;17.48;11.25;;;;;;;15.56;34.15;95046.34;4878002;29;20231;-68
2023/03/20 10:48:43;;;;;;;13.70;10.98;;;;;;;15.72;33.00;95037.41;4879438;29;20195;-69
2023/03/20 10:51:15;;;;;;;15.82;11.35;;;;;;;15.68;33.39;95036.09;4874562;29;20235;-69
2023/03/20 10:53:50;;;;;;;20.27;12.07;;;;;;;15.48;33.23;95028.69;4894234;29;20226;-69
2023/03/20 10:56:41;;;;;;;17.02;11.95;;;;;;;15.72;33.71;95027.63;4891218;29;20226;-69
2023/03/20 10:59:17;;;;;;;15.68;11.55;;;;;;;15.93;33.31;95018.09;4877816;29;20242;-69
2023/03/20 11:01:42;;;;;;;15.50;10.85;;;;;;;16.60;31.79;95014.34;4876242;29;20235;-69
2023/03/20 11:04:07;;;;;;;16.52;11.82;;;;;;;16.36;32.10;95010.22;4878541;29;20337;-69
2023/03/20 11:06:42;;;;;;;16.10;11.80;;;;;;;16.13;32.17;95018.34;4904464;28;20200;-69
2023/03/20 11:09:15;;;;;;;17.58;11.40;;;;;;;16.59;31.74;95007.41;4971757;28;20228;-69
2023/03/20 11:11:45;;;;;;;16.05;11.45;;;;;;;16.75;31.58;95002.66;4965777;28;20256;-70
2023/03/20 11:14:23;;;;;;;16.65;11.88;;;;;;;16.72;32.24;95000.41;4960265;28;20322;-68
2023/03/20 11:16:50;;;;;;;15.15;10.82;;;;;;;16.70;30.90;94999.75;5000639;28;20292;-66
2023/03/20 11:19:18;;;;;;;14.52;10.73;;;;;;;17.24;30.41;94978.97;4979818;28;20220;-65
2023/03/20 11:21:56;;;;;;;13.65;10.68;;;;;;;17.37;30.47;94995.88;4961836;28;20255;-67
2023/03/20 11:24:24;;;;;;;14.82;10.23;;;;;;;17.48;29.69;94981.22;4973897;28;20263;-67
2023/03/20 11:26:50;;;;;;;13.57;10.07;;;;;;;17.44;30.10;94974.63;4965234;28;20226;-67
2023/03/20 11:29:30;;;;;;;15.13;11.38;;;;;;;17.82;28.94;94975.06;4971278;28;20272;-67
2023/03/20 11:32:07;;;;;;;14.23;11.23;;;;;;;17.52;29.09;94963.03;4963380;28;20360;-67
2023/03/20 11:34:36;;;;;;;14.27;10.18;;;;;;;17.60;29.27;94971.66;4973867;28;20239;-69
2023/03/20 11:37:17;;;;;;;11.95;10.50;;;;;;;17.80;28.89;94957.66;4966517;28;20697;-69